METAR v bližini

 

LJLJ - Ljubljana/Brnik, Slovenia
Oddaljenost od postaje: Z 41km
Podatki zajeti: 27/03/2017 22:00
Jasno
Jasno
 Veter iz smeri Z
Veter: Z 9 km/h
Temperatura: 2°C
Občutek mraza zaradi vetra: -1°C
Rosišče: -3°C
Vlažnost: 70%
Tlak: 1025 hPa
Stanje: Jasno
Vidljivost: večja od 10 km
2017/03/27 20:00 LJLJ 272000Z 28005KT CAVOK 02/M03 Q1025 NOSIG
LJMB - Maribor, Slovenia
Oddaljenost od postaje: SV 63km
Podatki zajeti: 27/03/2017 22:00
Jasno
Jasno
 Veter iz smeri S
Veter: S 7 km/h
Temperatura: 5°C
Občutek mraza zaradi vetra: 3°C
Rosišče: -3°C
Vlažnost: 57%
Tlak: 1025 hPa
Stanje: Jasno
Vidljivost: večja od 10 km
2017/03/27 20:00 LJMB 272000Z 35004KT CAVOK 05/M03 Q1025
 
LJPZ - Portoroz, Slovenia
Oddaljenost od postaje: JZ 130km
Podatki zajeti: 27/03/2017 22:00
Jasno
Jasno
 Veter iz smeri VJV
Veter: VJV 17 km/h
Temperatura: 8°C
Občutek mraza zaradi vetra: 5°C
Rosišče: -1°C
Vlažnost: 53%
Tlak: 1024 hPa
Stanje: Jasno
Vidljivost: večja od 10 km
2017/03/27 20:00 LJPZ 272000Z 12009KT CAVOK 08/M01 Q1024
LJCE - Cerklje, Slovenia
Oddaljenost od postaje: VJV 49km
Podatki zajeti: 27/03/2017 22:00
Jasno
Jasno
 Veter iz smeri Z
Veter: Z 4 km/h
Temperatura: 4°C
Rosišče: -3°C
Vlažnost: 61%
Tlak: 1025 hPa
Stanje: Jasno
Vidljivost: večja od 10 km
2017/03/27 20:00 LJCE 272000Z 26002KT CAVOK 04/M03 Q1025 RMK BLU
 
LDZA - Zagreb/Pleso, Croatia
Oddaljenost od postaje: VJV 96km
Podatki zajeti: 27/03/2017 22:00
Jasno
Jasno
 Veter iz smeri calm
Veter: Tišina
Temperatura: 5°C
Rosišče: -4°C
Vlažnost: 53%
Tlak: 1025 hPa
Stanje: Jasno
Vidljivost: večja od 10 km
2017/03/27 20:00 LDZA 272000Z 00000KT CAVOK 05/M04 Q1025 NOSIG
LDRI - Rijeka/Omisalj, Croatia
Oddaljenost od postaje: JJZ 109km
Podatki zajeti: 27/03/2017 22:00
Jasno
Jasno
 Veter iz smeri S
Veter: S 15 km/h
Temperatura: 13°C
Rosišče: -6°C
Vlažnost: 26%
Tlak: 1023 hPa
Stanje: Jasno
Vidljivost: večja od 10 km
2017/03/27 20:00 LDRI 272000Z 01008KT 330V050 CAVOK 13/M06 Q1023
 
LDPL - Pula, Croatia
Oddaljenost od postaje: JJZ 164km
Podatki zajeti: 27/03/2017 22:00
Jasno
Jasno
 Veter iz smeri SSZ
Veter: SSZ 9 km/h
Temperatura: 6°C
Občutek mraza zaradi vetra: 4°C
Rosišče: 2°C
Vlažnost: 76%
Tlak: 1024 hPa
Stanje: Jasno
Vidljivost: večja od 10 km
2017/03/27 20:00 LDPL 272000Z 34005KT CAVOK 06/02 Q1024 NOSIG
LOWK - Klagenfurt(Civ/M, Austria
Oddaljenost od postaje: SZ 76km
Podatki zajeti: 27/03/2017 21:50
Jasno
Jasno
 Veter iz smeri ZSZ
Veter: ZSZ 7 km/h
Temperatura: 7°C
Občutek mraza zaradi vetra: 6°C
Rosišče: -4°C
Vlažnost: 46%
Tlak: 1025 hPa
Oblačnost: Jasno
Vidljivost: 10 km
2017/03/27 19:50 LOWK 271950Z AUTO 29004KT 9999 NCD 07/M04 Q1025 NOSIG
 
LOWG - Graz (mil/Civ), Austria
Oddaljenost od postaje: SSV 100km
Podatki zajeti: 27/03/2017 21:50
Jasno
Jasno
 Veter iz smeri spremenljiv
Veter: spremenljiv 2 km/h
Temperatura: 7°C
Rosišče: -1°C
Vlažnost: 57%
Tlak: 1025 hPa
Stanje: Jasno
Vidljivost: večja od 10 km
2017/03/27 19:50 LOWG 271950Z VRB01KT CAVOK 07/M01 Q1025 NOSIG
LOWZ - Zell Am See, Austria
Oddaljenost od postaje: SZ 211km
Podatki zajeti: 31/12/2016 17:00
Ni posodobljen
Jasno
Jasno
 Veter iz smeri spremenljiv
Veter: spremenljiv 4 km/h
Temperatura: -4°C
Rosišče: -7°C
Vlažnost: 80%
Tlak: 1031 hPa
Oblačnost: Jasno
2016/12/31 16:00 LOWZ 311600Z VRB02KT 50KM SKC M04/M07 Q1031
 
LOAN - Wr.neustadt East, Austria
Oddaljenost od postaje: SSV 212km
Podatki zajeti: 27/03/2017 19:00
Ni posodobljen
Rahlo oblačno
Rahlo oblačno
 Veter iz smeri VSV
Veter: VSV 4 km/h
Oblačnost: Rahlo oblačno
Podrobnosti o oblakih: Rahlo oblačno 4267 m
2017/03/27 17:00 LOAN 271700Z 06002KT 35KM FEW140AC
LIPQ - Ronchi Legionari, Italy
Oddaljenost od postaje: JZ 35km
Podatki zajeti: 27/03/2017 21:50
Jasno
Jasno
 Veter iz smeri spremenljiv
Veter: spremenljiv 4 km/h
Temperatura: 10°C
Rosišče: 0°C
Vlažnost: 50%
Tlak: 1024 hPa
Stanje: Jasno
Vidljivost: večja od 10 km
2017/03/27 19:50 LIPQ 271950Z VRB02KT CAVOK 10/M00 Q1024
 
LIVT - Trieste, Italy
Oddaljenost od postaje: ZJZ 109km
Podatki zajeti: 27/03/2017 21:55
Jasno
Jasno
 Veter iz smeri SV
Veter: SV 4 km/h
Temperatura: 12°C
Rosišče: -4°C
Vlažnost: 33%
Tlak: 1023 hPa
Stanje: Jasno
Vidljivost: večja od 10 km
2017/03/27 19:55 LIVT 271955Z 05002KT CAVOK 12/M04 Q1023 RMK SKC QUK / QUL / VIS MAR 10 KM VIS MIN 9999
LIVO - Tarvisio, Italy
Oddaljenost od postaje: SSZ 49km
Podatki zajeti: 27/03/2017 19:55
Ni posodobljen
Jasno
Jasno
 Veter iz smeri SV
Veter: SV 2 km/h
Temperatura: 8°C
Rosišče: -5°C
Vlažnost: 40%
Tlak: 1023 hPa
Stanje: Jasno
Vidljivost: večja od 10 km
2017/03/27 17:55 LIVO 271755Z 05001KT CAVOK 08/M05 Q1023 RMK SKC VIS MIN 9999
 
LIPZ - Venezia/Tessera, Italy
Oddaljenost od postaje: ZJZ 217km
Podatki zajeti: 27/03/2017 21:50
Jasno
Jasno
 Veter iz smeri ZJZ
Veter: ZJZ 11 km/h
Temperatura: 12°C
Rosišče: 0°C
Vlažnost: 44%
Tlak: 1024 hPa
Stanje: Jasno
Vidljivost: večja od 10 km
2017/03/27 19:50 LIPZ 271950Z 25006KT CAVOK 12/00 Q1024 NOSIG
LHSM - Balaton, Hungary
Oddaljenost od postaje: VSV 177km
Podatki zajeti: 27/03/2017 21:45
Jasno
Jasno
 Veter iz smeri SZ
Veter: SZ 4 km/h
Temperatura: 7°C
Rosišče: -2°C
Vlažnost: 53%
Tlak: 1026 hPa
Stanje: Jasno
Vidljivost: večja od 10 km
2017/03/27 19:45 LHSM 271945Z 31002KT CAVOK 07/M02 Q1026